createdAt,value
2023-04-25T00:00:41.939Z,80.74
2023-04-25T00:01:43.920Z,80.72
2023-04-25T00:02:54.738Z,80.60
2023-04-25T00:03:40.715Z,80.45
2023-04-25T00:04:40.986Z,80.46
2023-04-25T00:05:40.161Z,80.40
2023-04-25T00:06:40.227Z,80.36
2023-04-25T00:07:40.040Z,80.20
2023-04-25T00:08:39.554Z,80.16
2023-04-25T00:09:40.338Z,80.29
2023-04-25T00:10:39.615Z,80.45
2023-04-25T00:11:40.561Z,80.54
2023-04-25T00:12:40.762Z,80.56
2023-04-25T00:13:40.798Z,80.70
2023-04-25T00:14:40.082Z,80.84
2023-04-25T00:15:39.242Z,81.06
2023-04-25T00:16:39.802Z,81.17
2023-04-25T00:17:40.000Z,81.22
2023-04-25T00:18:39.790Z,81.31
2023-04-25T00:19:40.401Z,81.52
2023-04-25T00:20:40.092Z,81.71
2023-04-25T00:21:39.276Z,81.77
2023-04-25T00:22:40.405Z,81.74
2023-04-25T00:23:39.705Z,81.66
2023-04-25T00:24:39.823Z,81.87
2023-04-25T00:25:39.854Z,82.01
2023-04-25T00:26:40.048Z,82.08
2023-04-25T00:27:39.807Z,82.08
2023-04-25T00:28:40.445Z,82.04
2023-04-25T00:29:40.119Z,81.92
2023-04-25T00:30:40.634Z,81.90
2023-04-25T00:31:39.992Z,81.98
2023-04-25T00:32:39.416Z,82.03
2023-04-25T00:33:39.594Z,82.05
2023-04-25T00:34:39.708Z,82.12
2023-04-25T00:35:40.200Z,82.36
2023-04-25T00:36:39.514Z,82.34
2023-04-25T00:37:40.006Z,82.28
2023-04-25T00:38:39.527Z,82.41
2023-04-25T00:39:40.407Z,82.47
2023-04-25T00:40:40.179Z,82.22
2023-04-25T00:41:39.566Z,82.09
2023-04-25T00:42:40.747Z,82.08
2023-04-25T00:43:39.948Z,82.04
2023-04-25T00:44:40.308Z,82.16
2023-04-25T00:45:39.589Z,82.37
2023-04-25T00:46:40.366Z,82.28
2023-04-25T00:47:40.312Z,82.19
2023-04-25T00:48:39.819Z,82.12
2023-04-25T00:49:39.986Z,82.05
2023-04-25T00:50:39.742Z,82.28
2023-04-25T00:51:40.111Z,82.46
2023-04-25T00:52:39.651Z,82.45
2023-04-25T00:53:40.748Z,82.29
2023-04-25T00:54:40.253Z,82.02
2023-04-25T00:55:39.400Z,81.85
2023-04-25T00:56:39.838Z,81.86
2023-04-25T00:57:40.086Z,81.79
2023-04-25T00:58:39.508Z,81.89
2023-04-25T00:59:39.669Z,82.11
2023-04-25T01:00:40.990Z,81.98
2023-04-25T01:01:39.833Z,82.05
2023-04-25T01:02:40.826Z,82.02
2023-04-25T01:03:40.892Z,82.03
2023-04-25T01:05:40.139Z,82.06
2023-04-25T01:06:39.471Z,82.15
2023-04-25T01:07:40.270Z,82.17
2023-04-25T01:08:40.109Z,82.10
2023-04-25T01:09:39.611Z,81.96
2023-04-25T01:10:40.610Z,81.84
2023-04-25T01:11:40.295Z,81.94
2023-04-25T01:12:39.755Z,81.94
2023-04-25T01:13:40.510Z,81.91
2023-04-25T01:14:39.715Z,81.80
2023-04-25T01:15:40.663Z,81.80
2023-04-25T01:16:40.465Z,81.87
2023-04-25T01:17:40.167Z,81.80
2023-04-25T01:18:39.793Z,81.76
2023-04-25T01:19:40.048Z,81.65
2023-04-25T01:20:39.836Z,81.71
2023-04-25T01:21:40.592Z,81.80
2023-04-25T01:22:39.945Z,81.83
2023-04-25T01:23:40.400Z,81.75
2023-04-25T01:24:39.857Z,81.80
2023-04-25T01:25:40.307Z,81.90
2023-04-25T01:26:39.291Z,82.05
2023-04-25T01:27:39.682Z,82.29
2023-04-25T01:28:40.931Z,82.38
2023-04-25T01:29:40.788Z,82.45
2023-04-25T01:30:40.801Z,82.33
2023-04-25T01:31:40.570Z,82.20
2023-04-25T01:32:40.129Z,82.23
2023-04-25T01:33:39.258Z,82.55
2023-04-25T01:34:39.721Z,82.63
2023-04-25T01:35:40.904Z,82.62
2023-04-25T01:36:40.800Z,82.64
2023-04-25T01:37:40.490Z,82.61
2023-04-25T01:38:39.789Z,82.61
2023-04-25T01:39:40.218Z,82.51
2023-04-25T01:40:40.148Z,82.51
2023-04-25T01:41:39.729Z,82.53
2023-04-25T01:42:40.147Z,82.47
2023-04-25T01:43:39.389Z,82.51
2023-04-25T01:44:39.653Z,82.62
2023-04-25T01:45:40.477Z,82.68
2023-04-25T01:46:40.498Z,82.64
2023-04-25T01:47:39.834Z,82.69
2023-04-25T01:48:40.889Z,82.83
2023-04-25T01:49:40.633Z,82.89
2023-04-25T01:50:40.441Z,82.91
2023-04-25T01:51:39.681Z,83.11
2023-04-25T01:52:40.807Z,83.07
2023-04-25T01:53:40.674Z,83.15
2023-04-25T01:54:40.194Z,83.27
2023-04-25T01:55:40.060Z,83.27
2023-04-25T01:56:39.780Z,83.40
2023-04-25T01:57:40.825Z,83.44
2023-04-25T01:58:40.800Z,83.41
2023-04-25T01:59:40.267Z,83.40
2023-04-25T02:00:41.444Z,83.41
2023-04-25T02:01:44.682Z,83.36
2023-04-25T02:02:40.883Z,83.42
2023-04-25T02:03:44.396Z,83.50
2023-04-25T02:04:39.811Z,83.61
2023-04-25T02:05:40.684Z,83.68
2023-04-25T02:06:40.190Z,83.64
2023-04-25T02:07:40.806Z,83.65
2023-04-25T02:08:40.441Z,83.69
2023-04-25T02:09:39.616Z,83.73
2023-04-25T02:10:40.022Z,83.73
2023-04-25T02:11:39.087Z,83.67
2023-04-25T02:12:39.221Z,83.64
2023-04-25T02:13:39.390Z,83.61
2023-04-25T02:14:39.486Z,83.65
2023-04-25T02:15:39.774Z,83.66
2023-04-25T02:16:40.473Z,83.67
2023-04-25T02:17:48.227Z,83.59
2023-04-25T02:18:39.780Z,83.58
2023-04-25T02:19:40.103Z,83.50
2023-04-25T02:20:40.296Z,83.48
2023-04-25T02:21:39.781Z,83.45
2023-04-25T02:22:40.471Z,83.46
2023-04-25T02:23:39.573Z,83.47
2023-04-25T02:24:39.686Z,83.47
2023-04-25T02:25:40.222Z,83.40
2023-04-25T02:26:39.531Z,83.43
2023-04-25T02:27:39.926Z,83.46
2023-04-25T02:28:40.435Z,83.53
2023-04-25T02:29:39.687Z,83.58
2023-04-25T02:30:40.488Z,83.48
2023-04-25T02:31:40.009Z,83.36
2023-04-25T02:32:39.288Z,83.33
2023-04-25T02:33:39.542Z,83.29
2023-04-25T02:34:40.745Z,83.22
2023-04-25T02:35:40.180Z,83.30
2023-04-25T02:36:39.533Z,83.23
2023-04-25T02:37:40.140Z,83.26
2023-04-25T02:38:40.358Z,83.16
2023-04-25T02:39:39.959Z,83.10
2023-04-25T02:40:40.378Z,83.12
2023-04-25T02:41:41.609Z,83.09
2023-04-25T02:42:45.082Z,83.09
2023-04-25T02:43:39.620Z,83.08
2023-04-25T02:44:40.671Z,83.12
2023-04-25T02:45:41.055Z,83.12
2023-04-25T02:46:54.736Z,83.09
2023-04-25T02:47:40.694Z,82.97
2023-04-25T02:48:40.640Z,83.06
2023-04-25T02:49:40.107Z,83.09
2023-04-25T02:50:39.726Z,83.04
2023-04-25T02:51:40.648Z,82.98
2023-04-25T02:52:40.020Z,83.00
2023-04-25T02:53:39.513Z,83.09
2023-04-25T02:54:40.153Z,83.08
2023-04-25T02:55:42.651Z,83.08
2023-04-25T02:56:39.714Z,83.08
2023-04-25T02:57:40.450Z,82.98
2023-04-25T02:58:39.680Z,82.98
2023-04-25T02:59:39.881Z,82.97
2023-04-25T03:00:41.435Z,82.89
2023-04-25T03:01:40.672Z,82.98
2023-04-25T03:02:40.264Z,82.92
2023-04-25T03:03:39.357Z,82.79
2023-04-25T03:04:39.872Z,82.90
2023-04-25T03:05:39.890Z,82.99
2023-04-25T03:06:40.008Z,82.98
2023-04-25T03:07:39.559Z,82.95
2023-04-25T03:08:40.041Z,82.96
2023-04-25T03:09:39.552Z,82.87
2023-04-25T03:10:40.581Z,82.90
2023-04-25T03:11:40.270Z,82.92
2023-04-25T03:12:39.806Z,82.85
2023-04-25T03:13:40.411Z,82.82
2023-04-25T03:14:40.209Z,82.79
2023-04-25T03:15:40.082Z,82.85
2023-04-25T03:16:40.302Z,82.96
2023-04-25T03:17:40.352Z,83.00
2023-04-25T03:18:39.973Z,82.99
2023-04-25T03:19:39.762Z,82.97
2023-04-25T03:20:40.064Z,82.95
2023-04-25T03:21:39.412Z,82.97
2023-04-25T03:22:39.981Z,83.04
2023-04-25T03:23:38.976Z,83.08
2023-04-25T03:24:39.622Z,83.12
2023-04-25T03:25:41.068Z,83.22
2023-04-25T03:26:41.120Z,83.20
2023-04-25T03:27:40.804Z,83.21
2023-04-25T03:28:40.468Z,83.25
2023-04-25T03:29:39.703Z,83.31
2023-04-25T03:30:40.713Z,83.24
2023-04-25T03:31:40.354Z,83.19
2023-04-25T03:32:40.209Z,83.19
2023-04-25T03:33:39.702Z,83.07
2023-04-25T03:34:40.463Z,82.98
2023-04-25T03:35:41.724Z,82.94
2023-04-25T03:36:41.793Z,83.03
2023-04-25T03:37:40.608Z,83.04
2023-04-25T03:38:40.430Z,83.01
2023-04-25T03:39:39.720Z,82.98
2023-04-25T03:40:40.412Z,83.01
2023-04-25T03:41:40.161Z,83.15
2023-04-25T03:42:40.266Z,83.06
2023-04-25T03:43:40.098Z,82.99
2023-04-25T03:44:39.415Z,82.88
2023-04-25T03:45:39.735Z,82.93
2023-04-25T03:46:40.230Z,82.95
2023-04-25T03:47:39.974Z,82.89
2023-04-25T03:48:39.089Z,83.05
2023-04-25T03:49:39.211Z,83.04
2023-04-25T03:50:39.151Z,83.02
2023-04-25T03:51:39.542Z,83.15
2023-04-25T03:52:40.216Z,83.22
2023-04-25T03:53:39.670Z,83.10
2023-04-25T03:54:39.488Z,83.06
2023-04-25T03:55:40.779Z,83.08
2023-04-25T03:56:39.221Z,83.30
2023-04-25T03:57:39.180Z,83.38
2023-04-25T03:58:39.601Z,83.32
2023-04-25T03:59:39.294Z,83.18
2023-04-25T04:00:40.393Z,82.91
2023-04-25T04:01:39.751Z,82.80
2023-04-25T04:02:41.359Z,82.77
2023-04-25T04:03:40.737Z,82.94
2023-04-25T04:04:41.305Z,82.90
2023-04-25T04:05:41.187Z,82.69
2023-04-25T04:06:39.484Z,82.60
2023-04-25T04:07:39.886Z,82.52
2023-04-25T04:08:39.973Z,82.41
2023-04-25T04:09:40.528Z,82.37
2023-04-25T04:10:39.557Z,82.30
2023-04-25T04:11:39.664Z,82.19
2023-04-25T04:12:40.225Z,82.14
2023-04-25T04:13:39.636Z,82.09
2023-04-25T04:14:40.397Z,81.97
2023-04-25T04:15:39.950Z,81.89
2023-04-25T04:16:39.458Z,81.91
2023-04-25T04:17:39.921Z,81.91
2023-04-25T04:18:40.930Z,81.90
2023-04-25T04:19:40.258Z,81.92
2023-04-25T04:20:40.325Z,81.98
2023-04-25T04:21:39.750Z,81.98
2023-04-25T04:22:40.858Z,81.97
2023-04-25T04:23:40.940Z,81.82
2023-04-25T04:24:40.468Z,81.77
2023-04-25T04:25:40.301Z,81.78
2023-04-25T04:26:40.146Z,81.72
2023-04-25T04:27:40.433Z,81.69
2023-04-25T04:28:44.634Z,81.66
2023-04-25T04:29:40.022Z,81.61
2023-04-25T04:30:40.365Z,81.62
2023-04-25T04:31:40.195Z,81.51
2023-04-25T04:32:40.306Z,81.52
2023-04-25T04:33:40.027Z,81.66
2023-04-25T04:34:39.757Z,81.65
2023-04-25T04:35:40.361Z,81.63
2023-04-25T04:36:40.256Z,81.74
2023-04-25T04:37:40.991Z,81.83
2023-04-25T04:38:41.925Z,81.81
2023-04-25T04:39:40.577Z,81.73
2023-04-25T04:40:40.660Z,81.74
2023-04-25T04:41:40.787Z,81.80
2023-04-25T04:42:40.893Z,81.74
2023-04-25T04:43:41.272Z,81.89
2023-04-25T04:44:40.546Z,82.07
2023-04-25T04:45:41.987Z,82.02
2023-04-25T04:46:40.641Z,81.85
2023-04-25T04:47:40.906Z,81.84
2023-04-25T04:48:55.374Z,81.79
2023-04-25T04:49:40.126Z,81.78
2023-04-25T04:50:40.496Z,81.82
2023-04-25T04:51:40.582Z,81.83
2023-04-25T04:52:40.880Z,81.84
2023-04-25T04:53:40.639Z,81.98
2023-04-25T04:54:40.481Z,82.09
2023-04-25T04:55:40.533Z,82.12
2023-04-25T04:56:40.675Z,81.94
2023-04-25T04:57:40.460Z,81.81
2023-04-25T04:58:40.515Z,81.98
2023-04-25T04:59:39.917Z,81.91
2023-04-25T05:00:44.965Z,81.87
2023-04-25T05:01:40.168Z,81.84
2023-04-25T05:02:40.342Z,81.69
2023-04-25T05:03:40.765Z,81.69
2023-04-25T05:04:41.626Z,81.67
2023-04-25T05:05:41.413Z,81.73
2023-04-25T05:06:40.668Z,81.81
2023-04-25T05:07:41.098Z,81.81
2023-04-25T05:08:40.024Z,81.83
2023-04-25T05:09:39.759Z,81.89
2023-04-25T05:10:40.934Z,81.87
2023-04-25T05:11:40.804Z,81.70
2023-04-25T05:12:40.396Z,81.56
2023-04-25T05:13:40.658Z,81.61
2023-04-25T05:14:40.685Z,81.55
2023-04-25T05:15:40.935Z,81.46
2023-04-25T05:16:41.032Z,81.49
2023-04-25T05:17:40.315Z,81.37
2023-04-25T05:18:41.158Z,81.40
2023-04-25T05:19:40.617Z,81.49
2023-04-25T05:20:40.965Z,81.53
2023-04-25T05:21:41.042Z,81.55
2023-04-25T05:22:40.092Z,81.59
2023-04-25T05:23:40.383Z,81.75
2023-04-25T05:24:40.572Z,82.03
2023-04-25T05:25:40.439Z,82.06
2023-04-25T05:26:54.970Z,81.97
2023-04-25T05:27:40.481Z,81.91
2023-04-25T05:28:40.459Z,81.71
2023-04-25T05:29:40.947Z,81.61
2023-04-25T05:30:41.369Z,81.51
2023-04-25T05:31:40.385Z,81.37
2023-04-25T05:32:40.792Z,81.56
2023-04-25T05:33:41.082Z,81.68
2023-04-25T05:34:40.070Z,81.49
2023-04-25T05:35:40.592Z,81.41
2023-04-25T05:36:41.186Z,81.44
2023-04-25T05:37:40.866Z,81.39
2023-04-25T05:38:41.118Z,81.42
2023-04-25T05:39:40.562Z,81.30
2023-04-25T05:40:59.928Z,81.34
2023-04-25T05:41:41.151Z,81.47
2023-04-25T05:42:40.233Z,81.63
2023-04-25T05:43:39.594Z,81.65
2023-04-25T05:44:40.786Z,81.84
2023-04-25T05:45:40.871Z,81.86
2023-04-25T05:46:41.730Z,81.83
2023-04-25T05:47:41.377Z,81.95
2023-04-25T05:48:41.606Z,81.98
2023-04-25T05:49:40.911Z,81.93
2023-04-25T05:50:41.041Z,82.05
2023-04-25T05:51:40.228Z,81.95
2023-04-25T05:52:40.333Z,81.83
2023-04-25T05:53:40.701Z,81.65
2023-04-25T05:54:41.101Z,81.55
2023-04-25T05:55:40.231Z,81.56
2023-04-25T05:56:40.354Z,81.47
2023-04-25T05:57:40.396Z,81.36
2023-04-25T05:58:40.569Z,81.44
2023-04-25T05:59:41.166Z,81.49
2023-04-25T06:00:41.871Z,81.58
2023-04-25T06:01:41.288Z,81.52
2023-04-25T06:02:41.010Z,81.46
2023-04-25T06:03:41.188Z,81.48
2023-04-25T06:04:41.718Z,81.41
2023-04-25T06:05:41.236Z,81.33
2023-04-25T06:06:40.943Z,81.12
2023-04-25T06:07:41.226Z,81.18
2023-04-25T06:08:39.985Z,81.08
2023-04-25T06:09:40.484Z,80.96
2023-04-25T06:10:41.100Z,81.08
2023-04-25T06:11:40.111Z,81.21
2023-04-25T06:12:40.012Z,81.18
2023-04-25T06:13:40.590Z,81.15
2023-04-25T06:14:42.830Z,81.05
2023-04-25T06:15:44.894Z,81.02
2023-04-25T06:16:41.886Z,81.06
2023-04-25T06:17:41.019Z,81.04
2023-04-25T06:18:40.192Z,80.94
2023-04-25T06:19:40.619Z,80.92
2023-04-25T06:20:40.709Z,80.83
2023-04-25T06:21:40.898Z,80.80
2023-04-25T06:22:41.445Z,80.71
2023-04-25T06:23:41.016Z,80.73
2023-04-25T06:24:40.957Z,80.80
2023-04-25T06:25:41.903Z,80.76
2023-04-25T06:26:41.420Z,80.61
2023-04-25T06:27:41.779Z,80.35
2023-04-25T06:28:41.972Z,80.21
2023-04-25T06:29:41.383Z,79.98
2023-04-25T06:30:41.469Z,79.80
2023-04-25T06:31:42.273Z,79.68
2023-04-25T06:32:42.865Z,79.63
2023-04-25T06:33:41.545Z,79.63
2023-04-25T06:34:40.908Z,79.57
2023-04-25T06:35:41.950Z,79.58
2023-04-25T06:36:41.693Z,79.64
2023-04-25T06:37:41.522Z,79.69
2023-04-25T06:38:41.435Z,79.77
2023-04-25T06:39:41.395Z,79.83
2023-04-25T06:40:41.231Z,79.81
2023-04-25T06:41:41.040Z,79.63
2023-04-25T06:42:41.134Z,79.56
2023-04-25T06:43:41.654Z,79.43
2023-04-25T06:44:41.277Z,79.29
2023-04-25T06:45:41.712Z,79.04
2023-04-25T06:46:41.350Z,79.07
2023-04-25T06:47:41.502Z,79.10
2023-04-25T06:48:41.081Z,79.06
2023-04-25T06:49:41.486Z,78.97
2023-04-25T06:50:41.402Z,78.93
2023-04-25T06:51:41.204Z,78.82
2023-04-25T06:52:41.087Z,78.68
2023-04-25T06:53:41.036Z,78.46
2023-04-25T06:54:40.566Z,78.51
2023-04-25T06:55:41.540Z,78.55
2023-04-25T06:56:41.206Z,78.79
2023-04-25T06:57:41.709Z,78.88
2023-04-25T06:58:41.856Z,78.99
2023-04-25T06:59:46.947Z,78.97
2023-04-25T07:00:43.978Z,78.77
2023-04-25T07:01:41.654Z,78.55
2023-04-25T07:02:41.959Z,78.27
2023-04-25T07:03:42.190Z,78.18
2023-04-25T07:04:42.014Z,78.25
2023-04-25T07:05:41.382Z,78.27
2023-04-25T07:06:41.908Z,78.34
2023-04-25T07:07:41.831Z,78.35
2023-04-25T07:08:41.917Z,78.32
2023-04-25T07:09:42.243Z,78.26
2023-04-25T07:10:42.065Z,78.18
2023-04-25T07:11:41.631Z,78.02
2023-04-25T07:12:41.739Z,77.92
2023-04-25T07:13:41.510Z,77.92
2023-04-25T07:14:41.635Z,77.88
2023-04-25T07:15:41.719Z,77.78
2023-04-25T07:16:41.960Z,77.38
2023-04-25T07:17:41.714Z,77.16
2023-04-25T07:18:42.317Z,76.98
2023-04-25T07:19:41.825Z,77.00
2023-04-25T07:20:42.271Z,77.07
2023-04-25T07:21:41.279Z,76.98
2023-04-25T07:22:41.574Z,76.61
2023-04-25T07:23:42.105Z,76.39
2023-04-25T07:24:41.928Z,76.47
2023-04-25T07:25:42.205Z,76.47
2023-04-25T07:26:41.194Z,76.35
2023-04-25T07:27:41.032Z,76.24
2023-04-25T07:28:41.429Z,76.32
2023-04-25T07:29:41.135Z,76.40
2023-04-25T07:30:41.634Z,76.43
2023-04-25T07:31:41.602Z,76.22
2023-04-25T07:32:41.734Z,76.07
2023-04-25T07:33:42.054Z,76.31
2023-04-25T07:34:41.670Z,76.54
2023-04-25T07:35:41.427Z,76.55
2023-04-25T07:36:41.255Z,76.60
2023-04-25T07:37:41.135Z,76.53
2023-04-25T07:38:40.995Z,76.67
2023-04-25T07:39:40.861Z,76.75
2023-04-25T07:40:42.263Z,76.79
2023-04-25T07:41:41.717Z,76.84
2023-04-25T07:42:41.813Z,76.87
2023-04-25T07:43:41.261Z,76.91
2023-04-25T07:44:40.936Z,76.88
2023-04-25T07:45:41.850Z,76.80
2023-04-25T07:46:41.972Z,76.58
2023-04-25T07:47:42.144Z,76.43
2023-04-25T07:48:41.449Z,76.49
2023-04-25T07:49:41.470Z,76.55
2023-04-25T07:50:42.103Z,76.52
2023-04-25T07:51:41.453Z,76.33
2023-04-25T07:52:41.733Z,76.25
2023-04-25T07:53:41.853Z,76.37
2023-04-25T07:54:42.063Z,76.48
2023-04-25T07:55:41.461Z,76.65
2023-04-25T07:56:52.152Z,76.88
2023-04-25T07:57:41.349Z,76.76
2023-04-25T07:58:41.303Z,76.61
2023-04-25T07:59:41.496Z,76.51
2023-04-25T08:00:42.410Z,76.43
2023-04-25T08:01:42.121Z,76.47
2023-04-25T08:02:41.083Z,76.10
2023-04-25T08:03:42.367Z,75.91
2023-04-25T08:04:42.218Z,75.60
2023-04-25T08:05:42.186Z,75.53
2023-04-25T08:06:43.316Z,75.56
2023-04-25T08:07:41.828Z,75.49
2023-04-25T08:08:41.381Z,75.50
2023-04-25T08:09:41.178Z,75.56
2023-04-25T08:10:41.665Z,75.43
2023-04-25T08:11:41.632Z,75.29
2023-04-25T08:12:41.975Z,75.01
2023-04-25T08:13:41.603Z,75.06
2023-04-25T08:14:41.811Z,75.15
2023-04-25T08:15:42.400Z,75.08
2023-04-25T08:16:41.283Z,74.76
2023-04-25T08:18:03.762Z,74.34
2023-04-25T08:18:41.368Z,74.25
2023-04-25T08:19:41.321Z,74.18
2023-04-25T08:20:41.071Z,74.33
2023-04-25T08:21:41.123Z,74.44
2023-04-25T08:22:40.639Z,74.13
2023-04-25T08:23:41.519Z,73.94
2023-04-25T08:24:41.557Z,74.00
2023-04-25T08:25:41.570Z,74.11
2023-04-25T08:26:41.609Z,74.24
2023-04-25T08:27:41.388Z,74.34
2023-04-25T08:28:41.638Z,74.01
2023-04-25T08:29:41.633Z,73.85
2023-04-25T08:30:41.865Z,73.55
2023-04-25T08:31:41.486Z,72.94
2023-04-25T08:32:41.270Z,72.80
2023-04-25T08:33:41.066Z,72.78
2023-04-25T08:34:40.879Z,72.87
2023-04-25T08:35:42.060Z,72.94
2023-04-25T08:36:55.638Z,72.44
2023-04-25T08:37:41.803Z,72.08
2023-04-25T08:38:41.775Z,71.91
2023-04-25T08:39:42.040Z,72.33
2023-04-25T08:40:41.441Z,72.64
2023-04-25T08:41:41.373Z,72.99
2023-04-25T08:42:41.432Z,73.24
2023-04-25T08:43:41.379Z,73.30
2023-04-25T08:44:41.153Z,73.06
2023-04-25T08:45:41.853Z,72.87
2023-04-25T08:46:42.646Z,72.79
2023-04-25T08:47:42.252Z,72.85
2023-04-25T08:48:41.920Z,72.88
2023-04-25T08:49:41.502Z,72.71
2023-04-25T08:50:41.242Z,72.69
2023-04-25T08:51:41.280Z,72.52
2023-04-25T08:52:41.451Z,72.47
2023-04-25T08:53:43.415Z,72.61
2023-04-25T08:54:52.423Z,72.72
2023-04-25T08:55:41.642Z,72.77
2023-04-25T08:56:41.753Z,72.74
2023-04-25T08:57:41.876Z,72.62
2023-04-25T08:58:41.661Z,72.67
2023-04-25T08:59:41.536Z,72.73
2023-04-25T09:00:42.233Z,72.78
2023-04-25T09:01:41.196Z,72.98
2023-04-25T09:02:41.292Z,72.80
2023-04-25T09:03:41.726Z,72.69
2023-04-25T09:04:41.819Z,72.74
2023-04-25T09:05:41.984Z,73.01
2023-04-25T09:06:40.671Z,73.18
2023-04-25T09:07:41.810Z,73.30
2023-04-25T09:08:42.037Z,73.27
2023-04-25T09:09:42.387Z,73.16
2023-04-25T09:10:41.818Z,72.92
2023-04-25T09:11:41.645Z,72.98
2023-04-25T09:12:41.272Z,72.68
2023-04-25T09:13:41.202Z,72.48
2023-04-25T09:14:40.914Z,72.59
2023-04-25T09:15:41.869Z,72.80
2023-04-25T09:16:41.765Z,72.95
2023-04-25T09:17:41.723Z,72.94
2023-04-25T09:18:48.400Z,72.98
2023-04-25T09:19:57.760Z,73.05
2023-04-25T09:20:56.346Z,72.97
2023-04-25T09:21:40.865Z,72.64
2023-04-25T09:22:41.547Z,72.53
2023-04-25T09:23:40.923Z,72.41
2023-04-25T09:24:46.406Z,72.42
2023-04-25T09:25:41.170Z,72.44
2023-04-25T09:26:45.875Z,72.52
2023-04-25T09:27:41.654Z,72.56
2023-04-25T09:28:41.545Z,72.62
2023-04-25T09:29:41.070Z,72.62
2023-04-25T09:30:41.484Z,72.80
2023-04-25T09:31:41.555Z,72.86
2023-04-25T09:32:41.388Z,72.42
2023-04-25T09:33:40.695Z,72.33
2023-04-25T09:34:41.261Z,72.33
2023-04-25T09:35:41.573Z,72.49
2023-04-25T09:36:41.014Z,72.61
2023-04-25T09:37:41.022Z,72.83
2023-04-25T09:38:40.692Z,72.63
2023-04-25T09:39:41.899Z,72.16
2023-04-25T09:40:41.705Z,71.5
2023-04-25T09:41:41.252Z,71.36
2023-04-25T09:42:40.422Z,70.83
2023-04-25T09:43:41.001Z,70.96
2023-04-25T09:44:40.831Z,69.77
2023-04-25T09:45:41.443Z,69.36
2023-04-25T09:46:41.420Z,69.54
2023-04-25T09:47:41.762Z,69.62
2023-04-25T09:48:41.485Z,69.94
2023-04-25T09:49:41.563Z,69.90
2023-04-25T09:50:41.752Z,69.97
2023-04-25T09:51:42.251Z,70.12
2023-04-25T09:52:42.158Z,69.97
2023-04-25T09:53:40.858Z,69.55
2023-04-25T09:54:41.508Z,68.62
2023-04-25T09:55:41.888Z,68.34
2023-04-25T09:56:40.978Z,68.61
2023-04-25T09:57:41.065Z,67.91
2023-04-25T09:58:41.317Z,67.78
2023-04-25T09:59:41.672Z,67.79
2023-04-25T10:00:42.838Z,67.77
2023-04-25T10:01:41.849Z,68.08
2023-04-25T10:02:41.794Z,67.83
2023-04-25T10:03:42.063Z,67.99
2023-04-25T10:04:41.190Z,68.44
2023-04-25T10:05:41.579Z,68.23
2023-04-25T10:06:41.678Z,67.5
2023-04-25T10:07:41.742Z,67.75
2023-04-25T10:08:42.192Z,67.63
2023-04-25T10:09:41.310Z,67.91
2023-04-25T10:10:41.735Z,68.04
2023-04-25T10:11:41.737Z,67.83
2023-04-25T10:12:41.897Z,67.86
2023-04-25T10:13:41.999Z,68.16
2023-04-25T10:14:41.869Z,68.31
2023-04-25T10:15:43.026Z,68.51
2023-04-25T10:16:41.476Z,69.02
2023-04-25T10:17:41.410Z,69.22
2023-04-25T10:18:55.864Z,68.94
2023-04-25T10:19:42.041Z,68.85
2023-04-25T10:20:55.898Z,68.60
2023-04-25T10:21:41.591Z,68.05
2023-04-25T10:22:41.677Z,67.01
2023-04-25T10:23:41.984Z,66.52
2023-04-25T10:24:41.377Z,66.69
2023-04-25T10:25:41.309Z,67.04
2023-04-25T10:26:41.816Z,67.09
2023-04-25T10:27:41.425Z,67.01
2023-04-25T10:28:41.493Z,67.25
2023-04-25T10:29:41.795Z,67.36
2023-04-25T10:30:42.529Z,67.23
2023-04-25T10:31:42.394Z,67.32
2023-04-25T10:32:41.546Z,67.30
2023-04-25T10:33:42.049Z,67.33
2023-04-25T10:35:13.943Z,67.47
2023-04-25T10:35:48.326Z,67.44
2023-04-25T10:36:40.837Z,66.98
2023-04-25T10:37:41.982Z,66.98
2023-04-25T10:38:41.784Z,66.90
2023-04-25T10:39:41.964Z,66.69
2023-04-25T10:40:42.165Z,66.70
2023-04-25T10:41:41.614Z,66.58
2023-04-25T10:42:41.392Z,66.41
2023-04-25T10:43:41.385Z,66.32
2023-04-25T10:44:41.496Z,66.18
2023-04-25T10:45:42.161Z,66.20
2023-04-25T10:47:04.554Z,66.29
2023-04-25T10:47:42.339Z,66.59
2023-04-25T10:48:42.386Z,66.75
2023-04-25T10:49:41.726Z,66.88
2023-04-25T10:50:42.042Z,66.81
2023-04-25T10:51:54.953Z,67.03
2023-04-25T10:52:42.171Z,67.12
2023-04-25T10:53:41.768Z,67.08
2023-04-25T10:54:41.640Z,67.44
2023-04-25T10:55:42.424Z,67.58
2023-04-25T10:56:42.012Z,67.84
2023-04-25T10:57:41.678Z,67.56
2023-04-25T10:58:41.957Z,67.73
2023-04-25T10:59:42.033Z,67.58
2023-04-25T11:00:59.264Z,67.55
2023-04-25T11:01:41.964Z,67.53
2023-04-25T11:02:41.777Z,66.80
2023-04-25T11:03:41.742Z,66.68
2023-04-25T11:04:42.756Z,66.43
2023-04-25T11:05:50.966Z,66.75
2023-04-25T11:06:41.707Z,67.09
2023-04-25T11:07:43.110Z,67.27
2023-04-25T11:08:41.953Z,67.01
2023-04-25T11:09:42.194Z,66.78
2023-04-25T11:10:41.885Z,67.37
2023-04-25T11:11:41.972Z,67.03
2023-04-25T11:12:41.717Z,67.18
2023-04-25T11:13:41.451Z,67.19
2023-04-25T11:14:41.611Z,67.24
2023-04-25T11:15:41.476Z,67.30
2023-04-25T11:16:45.052Z,67.22
2023-04-25T11:17:41.886Z,65.33
2023-04-25T11:18:41.306Z,64.70
2023-04-25T11:19:40.922Z,64.66
2023-04-25T11:20:42.683Z,64.83
2023-04-25T11:21:42.010Z,64.86
2023-04-25T11:22:41.683Z,64.72
2023-04-25T11:23:40.911Z,64.98
2023-04-25T11:24:41.774Z,64.80
2023-04-25T11:25:42.222Z,64.41
2023-04-25T11:26:40.889Z,64.02
2023-04-25T11:27:41.854Z,64.01
2023-04-25T11:28:43.607Z,63.77
2023-04-25T11:29:40.972Z,63.65
2023-04-25T11:30:42.619Z,63.56
2023-04-25T11:31:41.597Z,63.61
2023-04-25T11:32:43.923Z,63.77
2023-04-25T11:33:41.866Z,62.84
2023-04-25T11:34:41.674Z,62.91
2023-04-25T11:35:41.792Z,62.27
2023-04-25T11:36:41.747Z,61.81
2023-04-25T11:37:41.809Z,61.83
2023-04-25T11:38:44.855Z,61.93
2023-04-25T11:39:42.004Z,62.36
2023-04-25T11:40:41.262Z,63.06
2023-04-25T11:41:42.791Z,62.67
2023-04-25T11:42:41.433Z,62.97
2023-04-25T11:43:43.403Z,63.20
2023-04-25T11:44:41.236Z,63.45
2023-04-25T11:45:46.140Z,62.90
2023-04-25T11:46:41.507Z,62.18
2023-04-25T11:47:41.948Z,62.66
2023-04-25T11:48:42.855Z,63.06
2023-04-25T11:49:41.772Z,62.47
2023-04-25T11:50:42.173Z,62.72
2023-04-25T11:51:46.396Z,63.15
2023-04-25T11:52:41.565Z,63.41
2023-04-25T11:53:46.549Z,63.52
2023-04-25T11:54:41.486Z,63.45
2023-04-25T11:55:41.220Z,64.12
2023-04-25T11:56:40.854Z,64.29
2023-04-25T11:57:41.921Z,64.36
2023-04-25T11:58:41.486Z,64.69
2023-04-25T11:59:41.657Z,64.83
2023-04-25T12:00:42.585Z,64.73
2023-04-25T12:01:55.358Z,65.12
2023-04-25T12:02:41.612Z,64.91
2023-04-25T12:03:41.939Z,64.44
2023-04-25T12:04:41.909Z,64.53
2023-04-25T12:05:46.116Z,64.62
2023-04-25T12:06:43.425Z,64.83
2023-04-25T12:07:42.240Z,64.58
2023-04-25T12:08:41.423Z,64.45
2023-04-25T12:09:41.639Z,64.48
2023-04-25T12:10:42.046Z,64.27
2023-04-25T12:11:41.395Z,64.23
2023-04-25T12:12:41.165Z,64.01
2023-04-25T12:13:41.149Z,63.97
2023-04-25T12:14:41.491Z,63.70
2023-04-25T12:15:42.294Z,62.86
2023-04-25T12:16:42.377Z,63.20
2023-04-25T12:18:01.244Z,63.38
2023-04-25T12:18:42.703Z,63.87
2023-04-25T12:19:42.088Z,63.90
2023-04-25T12:20:41.414Z,62.74
2023-04-25T12:21:54.508Z,62.40
2023-04-25T12:22:42.052Z,63.09
2023-04-25T12:23:46.080Z,63.15
2023-04-25T12:24:41.679Z,63.56
2023-04-25T12:25:42.392Z,63.88
2023-04-25T12:26:41.628Z,64.09
2023-04-25T12:27:42.311Z,64.23
2023-04-25T12:28:42.174Z,64.32
2023-04-25T12:29:49.763Z,63.88
2023-04-25T12:30:42.419Z,62.93
2023-04-25T12:31:41.615Z,62.77
2023-04-25T12:32:42.565Z,63.11
2023-04-25T12:33:41.914Z,63.72
2023-04-25T12:34:42.428Z,63.86
2023-04-25T12:35:43.161Z,63.75
2023-04-25T12:36:41.369Z,63.86
2023-04-25T12:37:49.252Z,64.26
2023-04-25T12:38:41.256Z,64.58
2023-04-25T12:39:41.282Z,64.66
2023-04-25T12:40:41.598Z,64.76
2023-04-25T12:41:41.571Z,64.79
2023-04-25T12:42:41.554Z,64.66
2023-04-25T12:43:54.944Z,64.43
2023-04-25T12:44:42.172Z,64.31
2023-04-25T12:45:42.400Z,63.83
2023-04-25T12:46:41.687Z,63.90
2023-04-25T12:47:41.650Z,64.09
2023-04-25T12:48:41.207Z,64.27
2023-04-25T12:49:55.051Z,64.39
2023-04-25T12:50:41.201Z,64.58
2023-04-25T12:51:54.823Z,64.63
2023-04-25T12:52:41.773Z,64.23
2023-04-25T12:53:41.693Z,64.33